createdAt,value
2022-09-25T00:00:59.567Z,100026.19
2022-09-25T00:03:27.855Z,100020.78
2022-09-25T00:06:02.012Z,100028.66
2022-09-25T00:08:29.106Z,100031.09
2022-09-25T00:10:56.005Z,99997.59
2022-09-25T00:13:22.801Z,100023.88
2022-09-25T00:15:52.128Z,100030.16
2022-09-25T00:18:42.520Z,99994.09
2022-09-25T00:21:12.734Z,100024.38
2022-09-25T00:23:40.064Z,100024.38
2022-09-25T00:26:08.196Z,100025.13
2022-09-25T00:28:39.533Z,100033.84
2022-09-25T00:31:07.449Z,100029.59
2022-09-25T00:33:35.454Z,100028.06
2022-09-25T00:36:07.157Z,100021.63
2022-09-25T00:38:35.296Z,100029.47
2022-09-25T00:41:02.772Z,100023.31
2022-09-25T00:43:37.739Z,100012.31
2022-09-25T00:46:11.006Z,100003.59
2022-09-25T00:48:40.064Z,100017.16
2022-09-25T00:51:06.558Z,99983.38
2022-09-25T00:53:38.435Z,100014.19
2022-09-25T00:56:05.677Z,100013.44
2022-09-25T00:58:35.025Z,100005.09
2022-09-25T01:01:01.655Z,100012.13
2022-09-25T01:03:28.610Z,100010.31
2022-09-25T01:05:56.290Z,100003.41
2022-09-25T01:08:26.193Z,99994.66
2022-09-25T01:10:52.718Z,100002.06
2022-09-25T01:13:20.315Z,100001.31
2022-09-25T01:15:52.097Z,99966.31
2022-09-25T01:18:34.230Z,100003.78
2022-09-25T01:21:36.436Z,100007.19
2022-09-25T01:24:08.608Z,100004.53
2022-09-25T01:26:44.667Z,100012.31
2022-09-25T01:29:47.962Z,100013.25
2022-09-25T01:32:14.393Z,100007.09
2022-09-25T01:35:05.884Z,100006.44
2022-09-25T01:37:50.283Z,100010.91
2022-09-25T01:40:33.695Z,100019.72
2022-09-25T01:43:26.832Z,100008.44
2022-09-25T01:46:03.058Z,100007.75
2022-09-25T01:48:32.328Z,100015.06
2022-09-25T01:51:24.209Z,100010.59
2022-09-25T01:54:02.860Z,100010.78
2022-09-25T01:56:46.481Z,100002.06
2022-09-25T01:59:18.858Z,99996.09
2022-09-25T02:01:47.648Z,100008.13
2022-09-25T02:04:22.873Z,99999.22
2022-09-25T02:06:51.829Z,99999.31
2022-09-25T02:09:37.541Z,99965.09
2022-09-25T02:12:12.836Z,99995.91
2022-09-25T02:15:04.210Z,100000.84
2022-09-25T02:17:56.510Z,99963.56
2022-09-25T02:20:36.246Z,99993.44
2022-09-25T02:23:17.875Z,99998.09
2022-09-25T02:26:03.109Z,99998.16
2022-09-25T02:28:29.655Z,99976.06
2022-09-25T02:30:59.597Z,99996.56
2022-09-25T02:33:27.425Z,99998.34
2022-09-25T02:35:54.036Z,99995.41
2022-09-25T02:38:21.695Z,99988.31
2022-09-25T02:41:15.454Z,99993.63
2022-09-25T02:44:07.081Z,99982.91
2022-09-25T02:46:55.286Z,99984.91
2022-09-25T02:49:56.966Z,99981.75
2022-09-25T02:52:35.922Z,99985.47
2022-09-25T02:55:30.711Z,99959.88
2022-09-25T02:58:15.657Z,99982.81
2022-09-25T03:00:46.837Z,99984.81
2022-09-25T03:03:16.582Z,99986.53
2022-09-25T03:05:44.083Z,99990.13
2022-09-25T03:08:29.278Z,99986.69
2022-09-25T03:10:57.631Z,99971.34
2022-09-25T03:13:31.225Z,99987.72
2022-09-25T03:16:02.915Z,99982.59
2022-09-25T03:18:30.952Z,99976.53
2022-09-25T03:20:58.639Z,99992.97
2022-09-25T03:23:25.186Z,99966.31
2022-09-25T03:25:55.483Z,99987.66
2022-09-25T03:28:23.233Z,99990.22
2022-09-25T03:30:58.354Z,99979.94
2022-09-25T03:33:26.353Z,100000.94
2022-09-25T03:36:04.253Z,99959.00
2022-09-25T03:38:30.749Z,99992.38
2022-09-25T03:40:57.349Z,99988.78
2022-09-25T03:43:24.123Z,99978.16
2022-09-25T03:45:51.010Z,99987.91
2022-09-25T03:48:18.036Z,99985.34
2022-09-25T03:50:46.166Z,99983.94
2022-09-25T03:53:12.669Z,99990.13
2022-09-25T03:55:39.143Z,99952.34
2022-09-25T03:58:05.684Z,99946.34
2022-09-25T04:00:32.215Z,99985.84
2022-09-25T04:02:59.369Z,99986.50
2022-09-25T04:05:26.080Z,99984.50
2022-09-25T04:07:52.639Z,99965.03
2022-09-25T04:10:19.120Z,99984.72
2022-09-25T04:12:45.637Z,99985.75
2022-09-25T04:15:12.137Z,99989.94
2022-09-25T04:17:38.694Z,99972.84
2022-09-25T04:20:05.557Z,99977.19
2022-09-25T04:22:32.091Z,99973.69
2022-09-25T04:24:58.667Z,99982.25
2022-09-25T04:27:25.169Z,99952.84
2022-09-25T04:29:51.713Z,99983.94
2022-09-25T04:32:36.558Z,99976.06
2022-09-25T04:35:03.309Z,99982.25
2022-09-25T04:37:29.865Z,99951.97
2022-09-25T04:39:57.734Z,99979.56
2022-09-25T04:42:25.578Z,99991.06
2022-09-25T04:44:53.929Z,99988.75
2022-09-25T04:47:24.071Z,99992.19
2022-09-25T04:49:51.016Z,99997.41
2022-09-25T04:52:19.186Z,99993.13
2022-09-25T04:54:46.727Z,100002.81
2022-09-25T04:57:45.731Z,99997.50
2022-09-25T05:00:10.809Z,99999.19
2022-09-25T05:02:37.470Z,100001.78
2022-09-25T05:05:04.189Z,100000.72
2022-09-25T05:07:30.677Z,99993.53
2022-09-25T05:09:57.209Z,100003.94
2022-09-25T05:12:23.678Z,100005.66
2022-09-25T05:14:50.181Z,99998.75
2022-09-25T05:17:16.734Z,100005.88
2022-09-25T05:19:43.251Z,99990.03
2022-09-25T05:22:09.771Z,100000.56
2022-09-25T05:24:39.157Z,99993.44
2022-09-25T05:27:05.640Z,99973.00
2022-09-25T05:29:32.155Z,99999.41
2022-09-25T05:31:58.667Z,99999.22
2022-09-25T05:34:25.153Z,99963.91
2022-09-25T05:36:52.381Z,99970.94
2022-09-25T05:39:18.853Z,99976.44
2022-09-25T05:41:45.395Z,100005.88
2022-09-25T05:44:11.933Z,100000.91
2022-09-25T05:46:40.480Z,99998.44
2022-09-25T05:49:07.139Z,100003.56
2022-09-25T05:51:33.966Z,99998.44
2022-09-25T05:54:00.466Z,99996.72
2022-09-25T05:56:27.396Z,100001.84
2022-09-25T05:58:56.122Z,99996.72
2022-09-25T06:01:22.701Z,99999.28
2022-09-25T06:03:49.267Z,99979.91
2022-09-25T06:06:15.825Z,100007.16
2022-09-25T06:08:42.625Z,100001.09
2022-09-25T06:11:11.361Z,99998.63
2022-09-25T06:13:38.100Z,99998.44
2022-09-25T06:16:05.652Z,99994.84
2022-09-25T06:18:33.281Z,100006.22
2022-09-25T06:21:02.639Z,100008.97
2022-09-25T06:23:29.524Z,99980.78
2022-09-25T06:26:00.808Z,99998.72
2022-09-25T06:28:27.361Z,100000.16
2022-09-25T06:30:53.906Z,100006.22
2022-09-25T06:33:20.954Z,100001.78
2022-09-25T06:35:48.640Z,100003.56
2022-09-25T06:38:16.557Z,99987.53
2022-09-25T06:40:43.831Z,100013.25
2022-09-25T06:43:15.474Z,99999.38
2022-09-25T06:45:43.022Z,100015.81
2022-09-25T06:48:14.325Z,100021.97
2022-09-25T06:50:55.427Z,100010.78
2022-09-25T06:53:24.339Z,100021.59
2022-09-25T06:55:51.699Z,100022.34
2022-09-25T06:58:20.656Z,100014.19
2022-09-25T07:00:48.159Z,100012.31
2022-09-25T07:03:34.210Z,100015.72
2022-09-25T07:06:01.677Z,100023.31
2022-09-25T07:08:28.183Z,100021.41
2022-09-25T07:10:56.613Z,100017.72
2022-09-25T07:13:30.044Z,100009.06
2022-09-25T07:15:58.746Z,100010.59
2022-09-25T07:18:26.402Z,100014.69
2022-09-25T07:20:53.881Z,99983.56
2022-09-25T07:23:22.398Z,99979.09
2022-09-25T07:25:49.645Z,100009.47
2022-09-25T07:28:18.944Z,100006.81
2022-09-25T07:30:45.899Z,99980.25
2022-09-25T07:33:13.018Z,100008.88
2022-09-25T07:35:39.926Z,99986.88
2022-09-25T07:38:06.452Z,99986.97
2022-09-25T07:40:35.375Z,99990.28
2022-09-25T07:43:02.636Z,100018.00
2022-09-25T07:45:30.136Z,100023.97
2022-09-25T07:48:01.288Z,100014.41
2022-09-25T07:50:31.964Z,100000.81
2022-09-25T07:52:59.101Z,99997.91
2022-09-25T07:55:28.217Z,100029.00
2022-09-25T07:57:57.409Z,100029.19
2022-09-25T08:00:24.301Z,100023.44
2022-09-25T08:02:58.884Z,100028.84
2022-09-25T08:05:27.182Z,100037.19
2022-09-25T08:07:54.658Z,100024.56
2022-09-25T08:10:22.545Z,100026.28
2022-09-25T08:12:49.741Z,100001.31
2022-09-25T08:15:16.585Z,100041.63
2022-09-25T08:17:43.299Z,100032.34
2022-09-25T08:20:10.400Z,100027.03
2022-09-25T08:22:37.014Z,100033.19
2022-09-25T08:25:03.779Z,100047.13
2022-09-25T08:27:30.829Z,100033.84
2022-09-25T08:29:57.586Z,100038.34
2022-09-25T08:32:24.370Z,100039.91
2022-09-25T08:34:50.916Z,100037.16
2022-09-25T08:37:18.161Z,100042.22
2022-09-25T08:39:44.985Z,100040.41
2022-09-25T08:42:19.773Z,100034.16
2022-09-25T08:45:21.224Z,100035.34
2022-09-25T08:48:09.837Z,100009.19
2022-09-25T08:50:37.723Z,100037.06
2022-09-25T08:53:14.476Z,100011.44
2022-09-25T08:56:00.368Z,100027.38
2022-09-25T08:58:30.804Z,100032.53
2022-09-25T09:01:07.577Z,100029.75
2022-09-25T09:03:47.277Z,100032.13
2022-09-25T09:06:16.586Z,100028.50
2022-09-25T09:08:48.753Z,100035.22
2022-09-25T09:11:20.136Z,100034.53
2022-09-25T09:13:53.050Z,100037.84
2022-09-25T09:16:29.439Z,100002.56
2022-09-25T09:18:56.794Z,100033.47
2022-09-25T09:21:57.406Z,100031.00
2022-09-25T09:24:37.487Z,100041.56
2022-09-25T09:27:21.779Z,100041.75
2022-09-25T09:30:05.230Z,100011.00
2022-09-25T09:32:50.850Z,100041.75
2022-09-25T09:35:36.244Z,100044.31
2022-09-25T09:38:44.194Z,100036.44
2022-09-25T09:41:13.439Z,100038.72
2022-09-25T09:43:40.895Z,100040.56
2022-09-25T09:46:25.430Z,100035.97
2022-09-25T09:49:25.536Z,100025.59
2022-09-25T09:52:04.996Z,100025.06
2022-09-25T09:54:39.295Z,100033.91
2022-09-25T09:57:15.446Z,100029.44
2022-09-25T09:59:48.799Z,100023.25
2022-09-25T10:02:40.878Z,100028.59
2022-09-25T10:05:23.448Z,100032.97
2022-09-25T10:07:51.456Z,100031.25
2022-09-25T10:10:19.455Z,100030.34
2022-09-25T10:12:54.011Z,100032.59
2022-09-25T10:15:34.999Z,100024.41
2022-09-25T10:18:03.203Z,100027.06
2022-09-25T10:20:42.460Z,100027.94
2022-09-25T10:23:52.616Z,100029.44
2022-09-25T10:26:39.038Z,100027.84
2022-09-25T10:29:26.758Z,100026.72
2022-09-25T10:32:03.949Z,100026.09
2022-09-25T10:34:31.872Z,100027.63
2022-09-25T10:36:58.543Z,100033.19
2022-09-25T10:39:49.004Z,100037.31
2022-09-25T10:42:33.264Z,100034.09
2022-09-25T10:44:59.829Z,100033.66
2022-09-25T10:47:50.932Z,100030.63
2022-09-25T10:50:21.613Z,100042.28
2022-09-25T10:52:59.160Z,100006.53
2022-09-25T10:55:35.470Z,100037.66
2022-09-25T10:58:28.189Z,100038.22
2022-09-25T11:00:57.755Z,100039.06
2022-09-25T11:03:24.187Z,100015.38
2022-09-25T11:05:57.341Z,100041.44
2022-09-25T11:08:30.089Z,100042.97
2022-09-25T11:10:59.624Z,100036.81
2022-09-25T11:13:30.147Z,100035.44
2022-09-25T11:16:00.639Z,100043.41
2022-09-25T11:18:46.885Z,100057.91
2022-09-25T11:21:21.407Z,100031.31
2022-09-25T11:24:04.658Z,100026.16
2022-09-25T11:26:38.024Z,100054.19
2022-09-25T11:29:27.195Z,100050.09
2022-09-25T11:32:04.877Z,100044.78
2022-09-25T11:34:54.475Z,100016.13
2022-09-25T11:37:35.067Z,100050.66
2022-09-25T11:40:31.485Z,100047.91
2022-09-25T11:43:12.366Z,100040.41
2022-09-25T11:46:07.490Z,100052.28
2022-09-25T11:48:50.494Z,100035.34
2022-09-25T11:51:46.524Z,100048.31
2022-09-25T11:54:39.864Z,100021.53
2022-09-25T11:57:11.598Z,100043.66
2022-09-25T12:00:03.731Z,100042.22
2022-09-25T12:03:10.866Z,100040.59
2022-09-25T12:05:56.274Z,100040.59
2022-09-25T12:08:31.848Z,100043.25
2022-09-25T12:11:21.360Z,100043.81
2022-09-25T12:14:14.054Z,100019.13
2022-09-25T12:16:54.989Z,100042.09
2022-09-25T12:19:55.051Z,100043.06
2022-09-25T12:22:30.492Z,100039.25
2022-09-25T12:25:16.663Z,100044.38
2022-09-25T12:28:01.649Z,100035.06
2022-09-25T12:30:43.273Z,100032.09
2022-09-25T12:33:18.671Z,100031.59
2022-09-25T12:36:04.054Z,100033.31
2022-09-25T12:38:38.437Z,100026.84
2022-09-25T12:41:30.301Z,100026.75
2022-09-25T12:44:05.219Z,100026.44
2022-09-25T12:46:39.810Z,100033.25
2022-09-25T12:49:20.913Z,100030.19
2022-09-25T12:51:51.473Z,100016.66
2022-09-25T12:54:17.790Z,100026.69
2022-09-25T12:57:02.346Z,100022.88
2022-09-25T12:59:46.546Z,100024.81
2022-09-25T13:02:34.739Z,100016.75
2022-09-25T13:05:24.048Z,100016.06
2022-09-25T13:08:07.171Z,100018.53
2022-09-25T13:10:39.442Z,100013.25
2022-09-25T13:13:13.300Z,100009.53
2022-09-25T13:15:42.867Z,100007.06
2022-09-25T13:18:17.912Z,100006.47
2022-09-25T13:20:52.093Z,100016.97
2022-09-25T13:23:37.151Z,100013.44
2022-09-25T13:26:15.408Z,100006.47
2022-09-25T13:29:11.590Z,100010.56
2022-09-25T13:31:44.498Z,100002.44
2022-09-25T13:34:18.161Z,100013.81
2022-09-25T13:36:56.621Z,100017.31
2022-09-25T13:40:01.000Z,100020.53
2022-09-25T13:42:39.594Z,99950.03
2022-09-25T13:45:26.351Z,100024.75
2022-09-25T13:48:06.076Z,100024.41
2022-09-25T13:50:42.764Z,100015.13
2022-09-25T13:53:18.590Z,100019.69
2022-09-25T13:55:57.263Z,100009.00
2022-09-25T13:58:26.554Z,100021.81
2022-09-25T14:00:58.514Z,100009.09
2022-09-25T14:03:44.496Z,100000.59
2022-09-25T14:06:24.170Z,99994.09
2022-09-25T14:08:53.394Z,100019.06
2022-09-25T14:11:26.927Z,100019.00
2022-09-25T14:13:55.202Z,100018.19
2022-09-25T14:16:28.905Z,100007.41
2022-09-25T14:18:58.077Z,100020.38
2022-09-25T14:21:28.834Z,100012.84
2022-09-25T14:24:11.977Z,100016.19
2022-09-25T14:26:44.511Z,99991.69
2022-09-25T14:29:19.492Z,100020.81
2022-09-25T14:32:36.504Z,100017.94
2022-09-25T14:35:34.480Z,100016.63
2022-09-25T14:38:40.539Z,100016.63
2022-09-25T14:41:49.011Z,100009.81
2022-09-25T14:44:45.243Z,100006.63
2022-09-25T14:47:15.137Z,100008.69
2022-09-25T14:49:46.445Z,99996.16
2022-09-25T14:52:21.860Z,100021.41
2022-09-25T14:54:49.527Z,100012.56
2022-09-25T14:57:25.333Z,99987.34
2022-09-25T14:59:57.925Z,100006.63
2022-09-25T15:02:45.762Z,100003.97
2022-09-25T15:05:27.402Z,100000.94
2022-09-25T15:07:56.273Z,100011.19
2022-09-25T15:10:30.797Z,99982.59
2022-09-25T15:13:16.366Z,100006.81
2022-09-25T15:16:06.409Z,100009.84
2022-09-25T15:18:37.807Z,100003.25
2022-09-25T15:21:23.061Z,99994.72
2022-09-25T15:23:51.836Z,99997.28
2022-09-25T15:26:18.645Z,99991.97
2022-09-25T15:28:45.994Z,99986.63
2022-09-25T15:31:12.949Z,99990.44
2022-09-25T15:33:41.107Z,99997.38
2022-09-25T15:36:23.721Z,99991.84
2022-09-25T15:38:55.744Z,99971.25
2022-09-25T15:41:25.987Z,99992.38
2022-09-25T15:44:07.984Z,99990.81
2022-09-25T15:46:41.731Z,99988.00
2022-09-25T15:49:09.806Z,99989.19
2022-09-25T15:51:36.892Z,99988.16
2022-09-25T15:54:25.950Z,99972.13
2022-09-25T15:56:56.209Z,99981.88
2022-09-25T15:59:36.479Z,99990.28
2022-09-25T16:02:39.968Z,99988.28
2022-09-25T16:05:10.356Z,99968.09
2022-09-25T16:07:38.978Z,99978.34
2022-09-25T16:12:57.143Z,99989.63
2022-09-25T16:15:31.050Z,99980.88
2022-09-25T16:18:05.496Z,99989.00
2022-09-25T16:20:36.798Z,99976.84
2022-09-25T16:23:14.505Z,99981.97
2022-09-25T16:25:44.744Z,99996.66
2022-09-25T16:28:21.563Z,99967.06
2022-09-25T16:31:00.462Z,99979.84
2022-09-25T16:33:37.661Z,99991.22
2022-09-25T16:36:16.072Z,99993.91
2022-09-25T16:39:04.575Z,99992.38
2022-09-25T16:41:31.220Z,99986.88
2022-09-25T16:44:25.293Z,99976.66
2022-09-25T16:46:52.286Z,99981.88
2022-09-25T16:49:21.884Z,99967.31
2022-09-25T16:51:51.544Z,99983.94
2022-09-25T16:54:21.283Z,99975.50
2022-09-25T16:56:51.033Z,99957.78
2022-09-25T16:59:21.047Z,99990.41
2022-09-25T17:01:50.348Z,99984.13
2022-09-25T17:04:19.765Z,99982.41
2022-09-25T17:06:47.500Z,99972.16
2022-09-25T17:09:15.957Z,99981.00
2022-09-25T17:11:45.623Z,99983.75
2022-09-25T17:14:26.484Z,99987.38
2022-09-25T17:16:54.645Z,99975.34
2022-09-25T17:19:22.036Z,99980.56
2022-09-25T17:24:37.311Z,99961.69
2022-09-25T17:27:11.863Z,99956.69
2022-09-25T17:29:39.000Z,99978.75
2022-09-25T17:32:05.609Z,99985.97
2022-09-25T17:34:32.889Z,99981.63
2022-09-25T17:36:59.398Z,99984.19
2022-09-25T17:39:26.198Z,99985.03
2022-09-25T17:41:52.809Z,99986.16
2022-09-25T17:44:23.347Z,99990.34
2022-09-25T17:46:55.711Z,99995.56
2022-09-25T17:49:23.446Z,99989.50
2022-09-25T17:51:57.193Z,99994.63
2022-09-25T17:54:24.192Z,100000.88
2022-09-25T17:56:51.354Z,99994.72
2022-09-25T17:59:18.055Z,99997.38
2022-09-25T18:01:44.836Z,99990.53
2022-09-25T18:04:22.582Z,100006.13
2022-09-25T18:06:49.619Z,100000.13
2022-09-25T18:09:16.389Z,99990.63
2022-09-25T18:11:44.061Z,99999.56
2022-09-25T18:14:16.240Z,100009.34
2022-09-25T18:16:44.715Z,100013.06
2022-09-25T18:19:35.518Z,100016.66
2022-09-25T18:22:17.710Z,100016.22
2022-09-25T18:24:53.006Z,100017.06
2022-09-25T18:27:20.508Z,100004.22
2022-09-25T18:29:47.353Z,100026.75
2022-09-25T18:32:14.748Z,100010.56
2022-09-25T18:34:42.520Z,100035.69
2022-09-25T18:37:09.559Z,100029.41
2022-09-25T18:39:36.196Z,100024.94
2022-09-25T18:42:03.047Z,100017.16
2022-09-25T18:44:30.356Z,99993.13
2022-09-25T18:46:57.080Z,100025.69
2022-09-25T18:49:24.923Z,100021.34
2022-09-25T18:51:51.444Z,100022.38
2022-09-25T18:54:18.230Z,100020.50
2022-09-25T18:56:44.750Z,100010.03
2022-09-25T18:59:11.392Z,100017.06
2022-09-25T19:01:39.303Z,100021.22
2022-09-25T19:04:06.684Z,100018.38
2022-09-25T19:06:33.686Z,100003.25
2022-09-25T19:09:01.297Z,100021.34
2022-09-25T19:11:28.237Z,100020.69
2022-09-25T19:13:55.182Z,100015.34
2022-09-25T19:16:23.377Z,100001.84
2022-09-25T19:18:53.033Z,100015.25
2022-09-25T19:21:24.161Z,100018.09
2022-09-25T19:23:50.931Z,100013.72
2022-09-25T19:26:21.085Z,100007.56
2022-09-25T19:28:47.783Z,100009.56
2022-09-25T19:31:20.970Z,100008.44
2022-09-25T19:33:47.995Z,100010.22
2022-09-25T19:36:26.400Z,99981.56
2022-09-25T19:38:54.071Z,100021.91
2022-09-25T19:41:26.204Z,100017.06
2022-09-25T19:43:54.459Z,100025.41
2022-09-25T19:46:23.124Z,100017.81
2022-09-25T19:48:50.255Z,100021.50
2022-09-25T19:51:19.030Z,100016.50
2022-09-25T19:53:46.217Z,100017.69
2022-09-25T19:56:13.681Z,99987.78
2022-09-25T19:58:40.707Z,100018.91
2022-09-25T20:01:14.509Z,100011.25
2022-09-25T20:03:41.847Z,100011.41
2022-09-25T20:06:10.148Z,100004.84
2022-09-25T20:08:37.645Z,99998.78
2022-09-25T20:11:14.900Z,99978.19
2022-09-25T20:13:41.411Z,100005.78
2022-09-25T20:16:20.230Z,100002.56
2022-09-25T20:18:55.603Z,100008.06
2022-09-25T20:21:22.262Z,100007.28
2022-09-25T20:23:53.194Z,100005.56
2022-09-25T20:26:23.954Z,99993.81
2022-09-25T20:28:58.914Z,100000.81
2022-09-25T20:31:27.283Z,99997.41
2022-09-25T20:33:54.672Z,99967.56
2022-09-25T20:36:22.580Z,99987.41
2022-09-25T20:38:50.766Z,99989.53
2022-09-25T20:41:18.189Z,99996.91
2022-09-25T20:43:45.017Z,99993.69
2022-09-25T20:46:13.612Z,99990.44
2022-09-25T20:48:47.339Z,99991.53
2022-09-25T20:51:16.336Z,99978.75
2022-09-25T20:53:43.626Z,99959.16
2022-09-25T20:56:14.909Z,99976.34
2022-09-25T20:58:43.025Z,99971.28
2022-09-25T21:01:12.323Z,99973.16
2022-09-25T21:03:41.567Z,99979.63
2022-09-25T21:06:14.016Z,99959.06
2022-09-25T21:08:40.727Z,99965.16
2022-09-25T21:11:08.046Z,99973.19
2022-09-25T21:13:36.267Z,99982.84
2022-09-25T21:16:22.414Z,99975.91
2022-09-25T21:18:55.325Z,99972.59
2022-09-25T21:21:23.108Z,99972.53
2022-09-25T21:23:51.774Z,99973.53
2022-09-25T21:26:18.458Z,99958.22
2022-09-25T21:28:48.273Z,99969.50
2022-09-25T21:31:18.511Z,99950.63
2022-09-25T21:33:45.399Z,99968.75
2022-09-25T21:36:14.205Z,99962.88
2022-09-25T21:38:41.374Z,99962.75
2022-09-25T21:41:13.609Z,99961.16
2022-09-25T21:43:40.952Z,99957.38
2022-09-25T21:46:18.868Z,99956.63
2022-09-25T21:48:57.340Z,99961.31
2022-09-25T21:51:30.273Z,99952.91
2022-09-25T21:53:57.292Z,99960.00
2022-09-25T21:56:25.969Z,99961.91
2022-09-25T21:58:54.785Z,99955.31
2022-09-25T22:01:27.428Z,99953.44
2022-09-25T22:03:56.505Z,99956.25
2022-09-25T22:06:26.374Z,99961.72
2022-09-25T22:08:56.213Z,99952.25
2022-09-25T22:11:23.593Z,99961.78
2022-09-25T22:13:51.102Z,99953.09
2022-09-25T22:16:25.245Z,99933.25
2022-09-25T22:18:58.616Z,99956.16
2022-09-25T22:21:28.131Z,99957.03
2022-09-25T22:23:54.812Z,99953.75
2022-09-25T22:26:22.593Z,99937.69
2022-09-25T22:28:49.788Z,99956.75
2022-09-25T22:31:19.299Z,99951.78
2022-09-25T22:33:48.019Z,99949.13
2022-09-25T22:36:14.860Z,99937.19
2022-09-25T22:38:41.817Z,99928.78
2022-09-25T22:41:10.920Z,99956.31
2022-09-25T22:43:38.349Z,99924.50
2022-09-25T22:46:05.717Z,99946.81
2022-09-25T22:48:33.221Z,99934.94
2022-09-25T22:51:08.358Z,99934.94
2022-09-25T22:53:36.030Z,99929.88
2022-09-25T22:56:19.003Z,99918.88
2022-09-25T22:58:51.583Z,99923.53
2022-09-25T23:01:22.910Z,99932.53
2022-09-25T23:03:53.618Z,99923.81
2022-09-25T23:06:19.961Z,99942.47
2022-09-25T23:08:51.841Z,99901.78
2022-09-25T23:11:21.657Z,99907.06
2022-09-25T23:13:50.658Z,99924.69
2022-09-25T23:16:18.315Z,99920.84
2022-09-25T23:18:44.969Z,99926.38
2022-09-25T23:21:11.583Z,99918.00
2022-09-25T23:23:38.116Z,99921.50
2022-09-25T23:26:08.366Z,99913.88
2022-09-25T23:28:39.782Z,99919.19
2022-09-25T23:31:12.218Z,99914.81
2022-09-25T23:33:40.372Z,99916.38
2022-09-25T23:36:12.822Z,99911.00
2022-09-25T23:38:39.606Z,99916.47
2022-09-25T23:41:25.745Z,99911.41
2022-09-25T23:43:53.789Z,99889.50
2022-09-25T23:46:22.666Z,99902.53
2022-09-25T23:48:49.857Z,99905.19
2022-09-25T23:51:17.419Z,99890.03
2022-09-25T23:53:44.470Z,99891.03
2022-09-25T23:56:12.569Z,99908.09
2022-09-25T23:58:39.749Z,99903.97
